createdAt,value
2018-03-17T00:00:48.873Z,4.47
2018-03-17T00:03:16.971Z,3.63
2018-03-17T00:05:45.089Z,4.67
2018-03-17T00:08:13.199Z,5.23
2018-03-17T00:10:41.294Z,4.40
2018-03-17T00:13:10.239Z,4.37
2018-03-17T00:15:38.504Z,4.73
2018-03-17T00:18:06.677Z,4.10
2018-03-17T00:20:34.793Z,4.67
2018-03-17T00:23:02.912Z,3.93
2018-03-17T00:25:31.046Z,4.57
2018-03-17T00:27:59.137Z,4.57
2018-03-17T00:30:27.247Z,5.00
2018-03-17T00:32:55.359Z,4.33
2018-03-17T00:35:23.474Z,4.30
2018-03-17T00:37:51.577Z,4.57
2018-03-17T00:40:19.825Z,4.10
2018-03-17T00:42:48.369Z,4.80
2018-03-17T00:45:16.508Z,4.53
2018-03-17T00:47:44.626Z,4.43
2018-03-17T00:50:14.133Z,4.97
2018-03-17T00:52:43.050Z,4.87
2018-03-17T00:55:11.147Z,5.43
2018-03-17T00:57:39.305Z,4.20
2018-03-17T01:00:07.462Z,4.50
2018-03-17T01:02:35.568Z,4.83
2018-03-17T01:05:03.667Z,5.00
2018-03-17T01:07:31.768Z,4.50
2018-03-17T01:10:00.014Z,4.70
2018-03-17T01:12:28.128Z,4.93
2018-03-17T01:14:56.242Z,5.00
2018-03-17T01:17:24.464Z,4.23
2018-03-17T01:19:52.620Z,4.70
2018-03-17T01:22:21.506Z,4.50
2018-03-17T01:24:49.616Z,4.33
2018-03-17T01:27:17.728Z,4.57
2018-03-17T01:29:45.839Z,4.87
2018-03-17T01:32:13.997Z,4.33
2018-03-17T01:34:43.953Z,4.33
2018-03-17T01:37:12.052Z,4.40
2018-03-17T01:39:40.235Z,4.80
2018-03-17T01:42:08.511Z,4.27
2018-03-17T01:44:36.601Z,4.37
2018-03-17T01:47:04.702Z,4.57
2018-03-17T01:49:32.813Z,4.40
2018-03-17T01:52:01.253Z,4.53
2018-03-17T01:54:32.143Z,4.60
2018-03-17T01:57:00.245Z,4.40
2018-03-17T01:59:28.428Z,4.40
2018-03-17T02:01:56.539Z,4.93
2018-03-17T02:04:24.660Z,4.57
2018-03-17T02:06:52.750Z,4.80
2018-03-17T02:09:20.846Z,4.80
2018-03-17T02:11:48.974Z,4.37
2018-03-17T02:14:17.074Z,4.17
2018-03-17T02:16:45.210Z,4.03
2018-03-17T02:19:13.299Z,4.50
2018-03-17T02:21:42.170Z,4.70
2018-03-17T02:24:10.302Z,4.47
2018-03-17T02:42:43.425Z,4.17
2018-03-17T02:45:11.515Z,4.47
2018-03-17T02:47:39.631Z,4.80
2018-03-17T02:50:07.733Z,4.37
2018-03-17T02:52:35.985Z,4.80
2018-03-17T02:55:04.655Z,5.93
2018-03-17T02:57:32.737Z,5.27
2018-03-17T03:00:00.865Z,4.93
2018-03-17T03:02:28.999Z,4.63
2018-03-17T03:04:57.114Z,4.57
2018-03-17T03:07:25.370Z,4.50
2018-03-17T03:09:53.543Z,4.90
2018-03-17T03:12:21.779Z,4.33
2018-03-17T03:14:50.036Z,4.70
2018-03-17T03:17:18.359Z,4.77
2018-03-17T03:19:46.534Z,5.23
2018-03-17T03:22:14.644Z,4.60
2018-03-17T03:24:42.738Z,4.90
2018-03-17T03:27:10.859Z,4.60
2018-03-17T03:29:38.960Z,4.63
2018-03-17T03:32:07.088Z,4.70
2018-03-17T03:34:35.192Z,4.30
2018-03-17T03:37:03.289Z,4.37
2018-03-17T03:39:31.424Z,4.20
2018-03-17T03:41:59.536Z,4.07
2018-03-17T03:44:28.264Z,3.40
2018-03-17T03:46:56.360Z,3.97
2018-03-17T03:49:24.490Z,3.80
2018-03-17T03:51:52.639Z,3.87
2018-03-17T03:54:21.513Z,4.33
2018-03-17T03:56:54.183Z,4.17
2018-03-17T03:59:22.287Z,4.27
2018-03-17T04:01:50.387Z,4.23
2018-03-17T04:04:18.962Z,3.73
2018-03-17T04:06:47.137Z,4.30
2018-03-17T04:09:15.288Z,4.10
2018-03-17T04:11:43.403Z,4.10
2018-03-17T04:14:11.544Z,3.90
2018-03-17T04:16:39.703Z,4.23
2018-03-17T04:19:08.653Z,4.70
2018-03-17T04:21:36.725Z,4.13
2018-03-17T04:24:04.909Z,4.57
2018-03-17T04:26:37.826Z,4.87
2018-03-17T04:29:05.932Z,4.70
2018-03-17T04:31:34.033Z,4.17
2018-03-17T04:34:02.124Z,4.70
2018-03-17T04:36:30.239Z,4.33
2018-03-17T04:38:58.398Z,5.10
2018-03-17T04:41:26.538Z,4.50
2018-03-17T04:43:54.755Z,3.80
2018-03-17T04:46:23.006Z,4.33
2018-03-17T04:48:51.059Z,4.07
2018-03-17T04:51:19.244Z,3.77
2018-03-17T04:53:47.282Z,3.80
2018-03-17T04:56:15.372Z,3.80
2018-03-17T04:58:43.463Z,3.70
2018-03-17T05:01:11.942Z,4.47
2018-03-17T05:03:40.881Z,3.63
2018-03-17T05:06:09.036Z,4.00
2018-03-17T05:08:37.164Z,3.73
2018-03-17T05:11:05.260Z,4.43
2018-03-17T05:13:33.918Z,3.73
2018-03-17T05:16:02.034Z,3.87
2018-03-17T05:18:30.120Z,3.80
2018-03-17T05:20:58.286Z,3.97
2018-03-17T05:23:26.374Z,4.00
2018-03-17T05:25:54.488Z,3.67
2018-03-17T05:28:22.592Z,3.80
2018-03-17T05:30:51.487Z,3.43
2018-03-17T05:33:19.602Z,3.53
2018-03-17T05:35:47.765Z,4.27
2018-03-17T05:38:15.890Z,4.03
2018-03-17T05:40:44.030Z,4.10
2018-03-17T05:43:12.243Z,4.70
2018-03-17T05:45:40.375Z,4.10
2018-03-17T05:48:08.610Z,4.27
2018-03-17T05:50:36.720Z,4.87
2018-03-17T05:53:04.840Z,4.50
2018-03-17T05:55:32.936Z,4.50
2018-03-17T05:58:01.037Z,4.70
2018-03-17T06:00:29.280Z,4.90
2018-03-17T06:02:58.033Z,4.07
2018-03-17T06:05:26.955Z,3.93
2018-03-17T06:07:55.177Z,4.43
2018-03-17T06:10:23.335Z,4.27
2018-03-17T06:12:51.427Z,4.93
2018-03-17T06:15:19.951Z,4.47
2018-03-17T06:30:43.686Z,4.80
2018-03-17T06:33:11.766Z,5.87
2018-03-17T06:35:39.896Z,6.53
2018-03-17T06:38:08.030Z,7.50
2018-03-17T06:40:36.128Z,6.43
2018-03-17T06:43:04.242Z,6.13
2018-03-17T06:45:33.010Z,6.93
2018-03-17T06:48:01.308Z,7.37
2018-03-17T06:50:29.420Z,7.27
2018-03-17T06:52:57.540Z,7.97
2018-03-17T06:55:26.424Z,8.67
2018-03-17T06:57:54.564Z,8.47
2018-03-17T07:00:22.686Z,7.47
2018-03-17T07:02:50.784Z,7.47
2018-03-17T07:05:19.036Z,7.17
2018-03-17T07:07:47.140Z,7.53
2018-03-17T07:10:15.265Z,8.37
2018-03-17T07:12:43.361Z,8.47
2018-03-17T07:15:11.461Z,7.83
2018-03-17T07:17:39.587Z,8.93
2018-03-17T07:20:07.772Z,10.00
2018-03-17T07:22:36.651Z,11.03
2018-03-17T07:25:04.751Z,12.03
2018-03-17T07:27:32.908Z,19.80
2018-03-17T07:30:01.044Z,25.60
2018-03-17T07:32:29.312Z,38.63
2018-03-17T07:35:01.635Z,43.03
2018-03-17T07:37:30.038Z,41.30
2018-03-17T07:39:58.238Z,39.60
2018-03-17T07:42:26.361Z,35.83
2018-03-17T07:44:54.580Z,31.27
2018-03-17T07:47:28.452Z,25.30
2018-03-17T07:50:12.418Z,23.93
2018-03-17T07:52:42.029Z,21.00
2018-03-17T07:55:10.922Z,20.20
2018-03-17T07:57:42.218Z,16.90
2018-03-17T08:00:11.610Z,14.13
2018-03-17T08:02:39.743Z,14.93
2018-03-17T08:05:08.044Z,14.37
2018-03-17T08:07:36.980Z,14.13
2018-03-17T08:10:05.186Z,14.03
2018-03-17T08:12:37.264Z,13.93
2018-03-17T08:15:05.436Z,13.43
2018-03-17T08:17:33.622Z,14.37
2018-03-17T08:20:02.068Z,13.77
2018-03-17T08:22:30.843Z,14.03
2018-03-17T08:24:59.753Z,13.93
2018-03-17T08:27:27.872Z,14.83
2018-03-17T08:29:55.999Z,14.33
2018-03-17T08:32:24.138Z,15.23
2018-03-17T08:34:52.269Z,14.37
2018-03-17T08:37:21.239Z,15.97
2018-03-17T08:39:49.451Z,15.57
2018-03-17T08:42:18.527Z,14.93
2018-03-17T08:44:46.922Z,15.33
2018-03-17T08:47:15.119Z,15.90
2018-03-17T08:49:43.268Z,16.43
2018-03-17T08:52:12.101Z,16.93
2018-03-17T08:54:40.874Z,17.37
2018-03-17T08:57:09.182Z,17.07
2018-03-17T08:59:37.338Z,16.60
2018-03-17T09:02:05.460Z,15.73
2018-03-17T09:04:33.592Z,15.20
2018-03-17T09:07:01.737Z,17.00
2018-03-17T09:09:30.625Z,16.33
2018-03-17T09:11:58.834Z,16.13
2018-03-17T09:14:26.972Z,15.50
2018-03-17T09:16:55.108Z,16.23
2018-03-17T09:19:23.231Z,15.80
2018-03-17T09:21:51.346Z,15.63
2018-03-17T09:24:19.529Z,17.00
2018-03-17T09:26:47.673Z,14.97
2018-03-17T09:29:15.783Z,15.60
2018-03-17T09:31:43.925Z,15.83
2018-03-17T09:34:12.733Z,15.70
2018-03-17T09:36:40.877Z,15.63
2018-03-17T09:39:09.793Z,14.90
2018-03-17T09:41:37.917Z,15.27
2018-03-17T09:44:06.047Z,13.97
2018-03-17T09:46:34.419Z,13.67
2018-03-17T09:49:02.597Z,14.30
2018-03-17T09:51:30.757Z,14.03
2018-03-17T09:54:00.181Z,12.87
2018-03-17T09:56:28.359Z,12.53
2018-03-17T09:58:57.485Z,14.07
2018-03-17T10:01:25.586Z,12.47
2018-03-17T10:03:54.262Z,13.10
2018-03-17T10:06:22.401Z,12.43
2018-03-17T10:08:51.290Z,12.20
2018-03-17T10:11:19.638Z,12.83
2018-03-17T10:13:48.518Z,12.07
2018-03-17T10:16:17.024Z,13.53
2018-03-17T10:18:45.206Z,13.77
2018-03-17T10:21:13.394Z,14.00
2018-03-17T10:23:41.734Z,14.30
2018-03-17T10:26:09.996Z,14.53
2018-03-17T10:28:38.150Z,13.70
2018-03-17T10:31:06.271Z,13.13
2018-03-17T10:33:34.443Z,14.50
2018-03-17T10:36:02.635Z,13.23
2018-03-17T10:38:31.368Z,13.67
2018-03-17T10:40:59.585Z,14.70
2018-03-17T10:43:27.761Z,14.47
2018-03-17T10:45:56.956Z,14.50
2018-03-17T10:48:26.075Z,14.70
2018-03-17T10:50:54.273Z,16.00
2018-03-17T10:53:22.423Z,15.67
2018-03-17T10:55:50.591Z,15.43
2018-03-17T10:58:18.809Z,17.17
2018-03-17T11:00:46.987Z,17.20
2018-03-17T11:03:15.135Z,16.40
2018-03-17T11:05:43.281Z,18.43
2018-03-17T11:08:12.945Z,18.00
2018-03-17T11:10:41.375Z,17.93
2018-03-17T11:13:09.581Z,17.73
2018-03-17T11:15:37.761Z,18.50
2018-03-17T11:18:06.683Z,18.33
2018-03-17T11:20:34.837Z,17.83
2018-03-17T11:23:03.068Z,17.53
2018-03-17T11:25:31.136Z,18.33
2018-03-17T11:28:00.088Z,19.73
2018-03-17T11:30:28.325Z,20.57
2018-03-17T11:32:56.499Z,20.23
2018-03-17T11:35:24.738Z,20.57
2018-03-17T11:37:52.909Z,20.50
2018-03-17T11:40:21.452Z,20.63
2018-03-17T11:42:49.712Z,20.47
2018-03-17T11:45:17.823Z,20.90
2018-03-17T11:47:46.676Z,20.47
2018-03-17T11:50:14.824Z,20.73
2018-03-17T11:52:42.939Z,20.73
2018-03-17T11:55:11.149Z,20.13
2018-03-17T12:10:38.133Z,12.73
2018-03-17T12:13:06.266Z,12.73
2018-03-17T12:15:35.893Z,12.43
2018-03-17T12:18:04.015Z,12.53
2018-03-17T12:20:32.217Z,13.07
2018-03-17T12:23:00.438Z,12.70
2018-03-17T12:25:28.676Z,12.63
2018-03-17T12:27:57.605Z,13.17
2018-03-17T12:30:26.089Z,13.07
2018-03-17T12:32:54.185Z,14.07
2018-03-17T12:35:22.457Z,14.03
2018-03-17T12:37:51.305Z,12.70
2018-03-17T12:40:21.709Z,14.23
2018-03-17T12:42:47.714Z,13.07
2018-03-17T12:45:15.829Z,13.67
2018-03-17T12:47:44.362Z,13.60
2018-03-17T12:50:12.480Z,13.53
2018-03-17T12:52:41.253Z,13.37
2018-03-17T12:55:09.464Z,11.87
2018-03-17T12:57:37.718Z,12.67
2018-03-17T13:00:06.527Z,12.10
2018-03-17T13:02:34.623Z,11.53
2018-03-17T13:05:02.728Z,11.97
2018-03-17T13:07:34.974Z,11.63
2018-03-17T13:10:03.139Z,11.70
2018-03-17T13:12:34.942Z,11.57
2018-03-17T13:15:03.092Z,10.10
2018-03-17T13:17:31.327Z,10.43
2018-03-17T13:19:59.455Z,10.30
2018-03-17T13:22:27.570Z,9.73
2018-03-17T13:24:55.694Z,9.57
2018-03-17T13:27:42.216Z,9.10
2018-03-17T13:30:10.448Z,9.57
2018-03-17T13:36:00.892Z,8.47
2018-03-17T13:38:29.018Z,9.97
2018-03-17T13:40:57.619Z,9.67
2018-03-17T13:53:05.842Z,10.63
2018-03-17T13:55:33.940Z,10.00
2018-03-17T13:58:02.092Z,9.70
2018-03-17T14:00:30.304Z,9.70
2018-03-17T14:02:58.499Z,8.97
2018-03-17T14:05:26.719Z,8.83
2018-03-17T14:07:54.828Z,9.23
2018-03-17T14:10:23.260Z,8.77
2018-03-17T14:12:52.138Z,9.73
2018-03-17T14:15:21.020Z,9.60
2018-03-17T14:17:49.530Z,9.57
2018-03-17T14:20:17.670Z,8.70
2018-03-17T14:22:45.822Z,9.33
2018-03-17T14:25:13.935Z,9.40
2018-03-17T14:27:42.070Z,9.93
2018-03-17T14:30:10.921Z,9.60
2018-03-17T14:32:39.149Z,8.77
2018-03-17T14:35:07.500Z,9.30
2018-03-17T14:37:35.663Z,9.57
2018-03-17T14:40:03.900Z,9.77
2018-03-17T14:42:32.069Z,9.80
2018-03-17T14:45:00.466Z,10.93
2018-03-17T14:47:28.592Z,10.33
2018-03-17T14:49:56.697Z,10.57
2018-03-17T14:52:29.226Z,10.37
2018-03-17T14:54:57.412Z,10.97
2018-03-17T14:57:25.526Z,11.93
2018-03-17T14:59:53.679Z,12.13
2018-03-17T15:02:21.794Z,12.20
2018-03-17T15:04:50.088Z,11.77
2018-03-17T15:07:18.263Z,12.30
2018-03-17T15:09:47.134Z,12.27
2018-03-17T15:12:15.334Z,11.93
2018-03-17T15:14:43.479Z,12.37
2018-03-17T15:17:11.609Z,13.03
2018-03-17T15:19:39.756Z,12.80
2018-03-17T15:22:07.879Z,12.57
2018-03-17T15:24:35.992Z,12.63
2018-03-17T15:27:04.120Z,13.10
2018-03-17T15:29:32.240Z,13.03
2018-03-17T15:32:00.348Z,13.77
2018-03-17T15:34:28.563Z,14.53
2018-03-17T15:36:56.704Z,13.67
2018-03-17T15:39:24.857Z,14.33
2018-03-17T15:41:53.320Z,13.53
2018-03-17T15:44:21.444Z,14.13
2018-03-17T15:46:49.585Z,14.00
2018-03-17T15:49:18.057Z,14.10
2018-03-17T15:51:46.227Z,13.20
2018-03-17T15:54:14.343Z,14.03
2018-03-17T15:56:42.461Z,14.43
2018-03-17T15:59:10.595Z,13.63
2018-03-17T16:01:38.747Z,15.00
2018-03-17T16:04:06.884Z,14.03
2018-03-17T16:06:35.123Z,14.93
2018-03-17T16:09:04.807Z,15.53
2018-03-17T16:24:27.939Z,13.53
2018-03-17T16:26:56.061Z,15.13
2018-03-17T16:29:24.214Z,15.23
2018-03-17T16:31:52.439Z,15.40
2018-03-17T16:34:20.568Z,15.70
2018-03-17T16:36:48.718Z,14.97
2018-03-17T16:39:16.889Z,14.50
2018-03-17T16:41:45.051Z,15.57
2018-03-17T16:44:13.745Z,15.43
2018-03-17T16:46:41.959Z,14.80
2018-03-17T16:49:10.090Z,15.40
2018-03-17T16:51:42.292Z,16.20
2018-03-17T16:54:10.579Z,16.77
2018-03-17T16:56:38.791Z,16.30
2018-03-17T16:59:07.023Z,15.73
2018-03-17T17:01:35.189Z,16.33
2018-03-17T17:04:03.328Z,15.20
2018-03-17T17:06:31.529Z,15.67
2018-03-17T17:09:03.509Z,16.00
2018-03-17T17:11:32.629Z,16.10
2018-03-17T17:14:00.873Z,15.80
2018-03-17T17:16:29.101Z,15.43
2018-03-17T17:18:57.231Z,15.27
2018-03-17T17:21:25.369Z,16.03
2018-03-17T17:23:53.594Z,16.07
2018-03-17T17:26:22.357Z,17.20
2018-03-17T17:28:50.714Z,15.67
2018-03-17T17:31:18.836Z,16.23
2018-03-17T17:33:46.986Z,17.40
2018-03-17T17:36:15.118Z,17.57
2018-03-17T17:38:43.230Z,16.47
2018-03-17T17:41:11.372Z,16.73
2018-03-17T17:43:39.534Z,17.03
2018-03-17T17:46:07.686Z,16.97
2018-03-17T17:48:35.790Z,17.13
2018-03-17T17:51:04.688Z,16.97
2018-03-17T17:53:32.824Z,17.10
2018-03-17T17:56:00.956Z,17.60
2018-03-17T17:58:29.056Z,15.10
2018-03-17T18:00:57.172Z,13.90
2018-03-17T18:03:26.056Z,12.77
2018-03-17T18:05:54.575Z,12.30
2018-03-17T18:08:22.724Z,12.47
2018-03-17T18:10:50.876Z,12.87
2018-03-17T18:13:27.165Z,12.70
2018-03-17T18:15:56.041Z,12.73
2018-03-17T18:18:24.639Z,13.63
2018-03-17T18:20:52.895Z,14.40
2018-03-17T18:23:21.426Z,13.67
2018-03-17T18:25:49.653Z,13.07
2018-03-17T18:28:17.748Z,12.80
2018-03-17T18:30:45.921Z,11.77
2018-03-17T18:33:14.047Z,13.83
2018-03-17T18:35:42.198Z,14.60
2018-03-17T18:38:10.311Z,14.63
2018-03-17T18:40:39.242Z,14.00
2018-03-17T18:43:07.346Z,14.73
2018-03-17T18:45:35.461Z,13.90
2018-03-17T18:48:03.583Z,15.13
2018-03-17T18:50:31.699Z,16.40
2018-03-17T18:52:59.865Z,15.97
2018-03-17T18:55:27.960Z,16.03
2018-03-17T18:57:56.478Z,16.77
2018-03-17T19:00:24.612Z,16.03
2018-03-17T19:02:52.952Z,15.03
2018-03-17T19:05:21.418Z,15.80
2018-03-17T19:07:49.578Z,16.37
2018-03-17T19:23:12.730Z,12.27
2018-03-17T19:25:40.946Z,14.17
2018-03-17T19:28:09.106Z,14.60
2018-03-17T19:30:37.765Z,13.80
2018-03-17T19:33:05.863Z,14.77
2018-03-17T19:35:34.007Z,14.23
2018-03-17T19:38:02.181Z,13.40
2018-03-17T19:40:30.370Z,14.07
2018-03-17T19:42:58.473Z,14.83
2018-03-17T19:45:30.751Z,14.87
2018-03-17T19:47:58.923Z,14.10
2018-03-17T19:50:28.349Z,14.27
2018-03-17T19:52:56.497Z,15.00
2018-03-17T19:55:24.687Z,14.93
2018-03-17T19:57:52.795Z,15.17
2018-03-17T20:00:20.931Z,14.10
2018-03-17T20:02:49.097Z,14.53
2018-03-17T20:05:21.084Z,16.43
2018-03-17T20:07:49.263Z,16.87
2018-03-17T20:10:17.427Z,17.20
2018-03-17T20:12:45.547Z,16.37
2018-03-17T20:15:13.667Z,15.40
2018-03-17T20:17:41.881Z,17.00
2018-03-17T20:20:10.096Z,15.80
2018-03-17T20:22:38.220Z,16.90
2018-03-17T20:25:06.326Z,17.43
2018-03-17T20:27:34.436Z,18.23
2018-03-17T20:30:02.587Z,16.97
2018-03-17T20:32:31.179Z,18.47
2018-03-17T20:35:00.159Z,17.10
2018-03-17T20:37:28.288Z,16.77
2018-03-17T20:39:56.438Z,17.80
2018-03-17T20:42:24.642Z,18.27
2018-03-17T20:44:52.795Z,17.43
2018-03-17T20:47:20.935Z,17.03
2018-03-17T20:49:49.080Z,16.73
2018-03-17T20:52:17.209Z,16.83
2018-03-17T20:54:45.321Z,18.20
2018-03-17T20:57:13.440Z,16.80
2018-03-17T20:59:41.562Z,19.00
2018-03-17T21:02:09.772Z,17.70
2018-03-17T21:04:37.890Z,17.67
2018-03-17T21:07:06.192Z,17.17
2018-03-17T21:09:34.313Z,17.10
2018-03-17T21:12:02.439Z,18.03
2018-03-17T21:14:30.558Z,17.30
2018-03-17T21:16:58.671Z,17.57
2018-03-17T21:19:26.825Z,17.40
2018-03-17T21:21:54.933Z,18.37
2018-03-17T21:24:23.092Z,17.13
2018-03-17T21:26:51.369Z,18.17
2018-03-17T21:29:19.627Z,17.93
2018-03-17T21:31:47.847Z,19.00
2018-03-17T21:34:16.800Z,18.73
2018-03-17T21:36:44.929Z,18.17
2018-03-17T21:39:13.080Z,18.20
2018-03-17T21:41:41.212Z,19.67
2018-03-17T21:44:09.345Z,18.77
2018-03-17T21:46:37.544Z,19.63
2018-03-17T21:49:05.658Z,18.93
2018-03-17T21:51:33.775Z,19.43
2018-03-17T21:54:01.958Z,20.47
2018-03-17T21:56:30.849Z,21.37
2018-03-17T21:58:58.978Z,20.70
2018-03-17T22:01:27.107Z,20.77
2018-03-17T22:03:55.232Z,20.20
2018-03-17T22:06:23.342Z,21.33
2018-03-17T22:08:51.578Z,21.33
2018-03-17T22:11:19.748Z,21.23
2018-03-17T22:13:48.760Z,20.73
2018-03-17T22:16:16.897Z,21.33
2018-03-17T22:18:45.022Z,21.10
2018-03-17T22:21:13.144Z,20.23
2018-03-17T22:23:41.289Z,21.30
2018-03-17T22:26:09.529Z,21.30
2018-03-17T22:28:37.936Z,20.93
2018-03-17T22:31:06.042Z,19.90
2018-03-17T22:33:34.157Z,21.70
2018-03-17T22:36:02.297Z,20.13
2018-03-17T22:38:30.630Z,20.27
2018-03-17T22:40:58.864Z,20.00
2018-03-17T22:43:26.988Z,20.23
2018-03-17T22:45:55.143Z,20.23
2018-03-17T22:48:23.239Z,18.90
2018-03-17T22:50:51.411Z,19.43
2018-03-17T22:53:19.523Z,19.40
2018-03-17T22:55:47.789Z,19.70
2018-03-17T22:58:15.961Z,18.60
2018-03-17T23:00:44.079Z,18.47
2018-03-17T23:03:12.978Z,19.87
2018-03-17T23:05:41.175Z,19.50
2018-03-17T23:08:09.456Z,18.13
2018-03-17T23:10:37.669Z,19.07
2018-03-17T23:13:05.907Z,18.63
2018-03-17T23:15:34.109Z,18.70
2018-03-17T23:18:02.349Z,18.77
2018-03-17T23:20:30.523Z,19.43
2018-03-17T23:22:58.619Z,19.03
2018-03-17T23:38:21.863Z,18.23
2018-03-17T23:40:50.012Z,18.20
2018-03-17T23:43:18.117Z,18.97
2018-03-17T23:45:46.316Z,19.80
2018-03-17T23:48:14.590Z,19.70
2018-03-17T23:50:42.798Z,20.80
2018-03-17T23:53:11.060Z,17.83
2018-03-17T23:55:39.305Z,18.60
2018-03-17T23:58:07.550Z,18.20
